Grafton, ND

6:03 AM CDT on July 10, 2014 (GMT -0500)
Grand Forks Air Force Base (KRDR) Elev 912 ft | 47.96 °N, 97.40 °W | Change Station

Current weather conditions updated 5 minutes ago

Clear
Clear
56 °F
Feels Like 56 °F
N
7
Wind Variable Wind from South

Today is forecast to be Much Warmer than yesterday.

Today
High -- | Low -- °F
--% Chance of Precip.
Yesterday
High -- | Low -- °F
Precip. -- in
5:39 AM 9:30 PM
Waxing Gibbous, 94% visible
Pressure 29.96 in
Visibility 10.0 miles
Clouds Clear
Dew Point 53 °F
Humidity 92%
Rainfall 0.00 in
Snow Depth Not available.
UV 0 out of 12
Pollen 4.50 out of 12
Air Quality Not available.
Flu Activity Sporadic
METAR KRDR 101058Z AUTO 18006KT 10SM CLR 13/12 A2995 RMK AO2 SLP146 T01310118

More Conditions Fewer Conditions

Pressure 29.96 in
Visibility 10.0 miles
Clouds Clear
Dew Point 53 °F
Humidity 92%
Rainfall 0.00 in
Snow Depth Not available.
UV 0 out of 12
Pollen 4.50 out of 12
Air Quality Not available.
Flu Activity Sporadic
METAR KRDR 101058Z AUTO 18006KT 10SM CLR 13/12 A2995 RMK AO2 SLP146 T01310118

More Conditions Fewer Conditions

10-Day Weather Forecast

Almanac

Astronomy

Jul. 10, 2014 Rise Set
Actual Time 5:39 AM CDT 9:30 PM CDT
Civil Twilight 4:58 AM CDT 10:10 PM CDT
Nautical Twilight 4:02 AM CDT 11:06 PM CDT
Astronomical Twilight 2:37 AM CDT 12:30 AM CDT
Moon 7:39 PM CDT 3:57 AM CDT
Length of Visible Light 17h 12m
Length of Day
15h 51m
Tomorrow will be 1m 36s shorter.
Waxing Gibbous, 94% of the Moon is Illuminated
Today
Waxing Gibbous
Jul 12
Full
Jul 18
Last Quarter
Jul 26
New
Aug 3
First Quarter

Today's Extremes

State Highs State Lows

Community

WunderPhotos

Upload Photos

1,732,094 photos uploaded!

Nearby

Snow Depth

Station Depth Elevation
No new snow has been reported.

Earthquake Activity

City Distance Mag. Time & Date
No recent earthquake activity has been reported nearby.
Minimum magnitude displayed is 2.5.

Coastal Water Temperatures

Place Temperature
No Stations Reporting

Nearby Weather Stations

Station Location Temp. Dew Point Humidity Wind Precip. Elev Updated Type
Hoople nd, Hoople, ND 51.3 °F 49 °F 91% ESE  at  1.0 mph 0.00 in / hr 870 ft 5:53 AM CDT Normal

Show More Stations Show Fewer Stations